Time;durP1;ratioP1;P1;durP2;ratioP2;P2;SDS_P1;SDS_P2;PMS_P1;PMS_P2;Temp;Humidity;BMP_temperature;BMP_pressure;BME280_temperature;BME280_humidity;BME280_pressure;Samples;Min_cycle;Max_cycle;Signal;HPM_P1;HPM_P2
2022/06/18 00:01:35;;;;;;;9.95;2.30;;;;;;;;;;5209174;28;20026;-73
2022/06/18 00:04:08;;;;;;;7.55;2.45;;;;;;;;;;5209709;28;20023;-73
2022/06/18 00:06:50;;;;;;;7.78;2.10;;;;;;;;;;5209887;28;20477;-73
2022/06/18 00:09:27;;;;;;;11.68;2.40;;;;;;;;;;5209071;28;20050;-73
2022/06/18 00:14:59;;;;;;;10.48;2.63;;;;;;;;;;5211341;28;20022;-73
2022/06/18 00:17:30;;;;;;;6.45;2.33;;;;;;;;;;5210225;28;20516;-73
2022/06/18 00:20:02;;;;;;;5.45;2.78;;;;;;;;;;5210287;28;20021;-73
2022/06/18 00:22:33;;;;;;;3.85;1.85;;;;;;;;;;5211072;28;20022;-74
2022/06/18 00:25:17;;;;;;;5.13;2.10;;;;;;;;;;5208563;28;20022;-74
2022/06/18 00:27:48;;;;;;;7.43;2.40;;;;;;;;;;5210572;28;20022;-73
2022/06/18 00:30:22;;;;;;;6.53;2.10;;;;;;;;;;5208863;28;20022;-73
2022/06/18 00:32:54;;;;;;;4.47;2.50;;;;;;;;;;5209700;28;20053;-73
2022/06/18 00:35:25;;;;;;;7.40;2.13;;;;;;;;;;5208970;28;20049;-74
2022/06/18 00:37:57;;;;;;;8.55;1.98;;;;;;;;;;5210271;28;20022;-73
2022/06/18 00:40:34;;;;;;;4.50;2.10;;;;;;;;;;5210777;28;20504;-73
2022/06/18 00:43:10;;;;;;;7.65;2.15;;;;;;;;;;5210335;28;20084;-73
2022/06/18 00:45:42;;;;;;;6.67;2.20;;;;;;;;;;5210388;28;20022;-72
2022/06/18 00:48:28;;;;;;;4.07;2.23;;;;;;;;;;5207954;28;20582;-72
2022/06/18 00:51:02;;;;;;;4.47;2.73;;;;;;;;;;5209137;28;20461;-73
2022/06/18 00:53:42;;;;;;;9.70;2.80;;;;;;;;;;5209260;28;20037;-72
2022/06/18 00:56:17;;;;;;;6.47;2.60;;;;;;;;;;5208866;28;20032;-72
2022/06/18 00:58:50;;;;;;;9.20;2.83;;;;;;;;;;5210618;28;20129;-72
2022/06/18 01:01:26;;;;;;;5.65;2.20;;;;;;;;;;5208132;28;20026;-72
2022/06/18 01:03:58;;;;;;;5.72;2.42;;;;;;;;;;5209811;28;20018;-72
2022/06/18 01:06:31;;;;;;;7.05;2.03;;;;;;;;;;5210290;28;20101;-72
2022/06/18 01:09:07;;;;;;;5.23;2.10;;;;;;;;;;5209449;28;20111;-72
2022/06/18 01:11:40;;;;;;;17.87;2.43;;;;;;;;;;5208871;28;20137;-72
2022/06/18 01:14:13;;;;;;;6.20;2.70;;;;;;;;;;5210844;22;20482;-72
2022/06/18 01:16:45;;;;;;;5.97;2.17;;;;;;;;;;5205433;28;20033;-72
2022/06/18 01:19:21;;;;;;;7.10;2.30;;;;;;;;;;5209206;28;20022;-72
2022/06/18 01:21:57;;;;;;;11.83;2.60;;;;;;;;;;5191589;28;20365;-72
2022/06/18 01:24:38;;;;;;;4.30;2.37;;;;;;;;;;5209006;28;20025;-72
2022/06/18 01:27:09;;;;;;;6.23;2.70;;;;;;;;;;5210359;28;20029;-72
2022/06/18 01:29:41;;;;;;;5.23;2.60;;;;;;;;;;5209564;28;20021;-72
2022/06/18 01:32:13;;;;;;;7.00;2.60;;;;;;;;;;5208739;28;20523;-72
2022/06/18 01:34:45;;;;;;;8.07;2.50;;;;;;;;;;5210321;28;20018;-72
2022/06/18 01:37:17;;;;;;;7.03;2.63;;;;;;;;;;5208954;28;20026;-72
2022/06/18 01:39:48;;;;;;;12.40;3.03;;;;;;;;;;5192601;28;20033;-72
2022/06/18 01:42:24;;;;;;;4.83;2.53;;;;;;;;;;5191549;28;20460;-72
2022/06/18 01:44:56;;;;;;;11.17;2.60;;;;;;;;;;5209645;28;20022;-73
2022/06/18 01:47:40;;;;;;;5.50;2.65;;;;;;;;;;5209101;28;20488;-72
2022/06/18 01:50:14;;;;;;;5.47;2.67;;;;;;;;;;5192035;28;20025;-72
2022/06/18 01:52:48;;;;;;;8.80;2.45;;;;;;;;;;5209849;28;20033;-72
2022/06/18 01:55:22;;;;;;;7.03;2.43;;;;;;;;;;5209438;28;20025;-72
2022/06/18 01:57:55;;;;;;;5.00;2.70;;;;;;;;;;5192052;28;20450;-72
2022/06/18 02:00:27;;;;;;;5.67;2.73;;;;;;;;;;5192304;28;20469;-72
2022/06/18 02:02:59;;;;;;;5.40;2.93;;;;;;;;;;5208855;28;20032;-72
2022/06/18 02:05:30;;;;;;;5.33;2.73;;;;;;;;;;5209802;28;20030;-73
2022/06/18 02:08:02;;;;;;;5.60;2.90;;;;;;;;;;5209653;28;20034;-72
2022/06/18 02:10:43;;;;;;;10.70;4.03;;;;;;;;;;5209731;28;20449;-73
2022/06/18 02:13:15;;;;;;;9.57;3.20;;;;;;;;;;5209434;28;20033;-72
2022/06/18 02:15:46;;;;;;;7.83;2.93;;;;;;;;;;5209269;28;20049;-72
2022/06/18 02:18:18;;;;;;;5.73;2.50;;;;;;;;;;5208395;28;20030;-73
2022/06/18 02:20:51;;;;;;;6.77;3.13;;;;;;;;;;5209917;28;20473;-73
2022/06/18 02:23:23;;;;;;;9.17;3.33;;;;;;;;;;5208841;28;20670;-73
2022/06/18 02:25:54;;;;;;;14.13;3.17;;;;;;;;;;5209118;28;20372;-74
2022/06/18 02:28:25;;;;;;;7.80;2.80;;;;;;;;;;5194977;28;20116;-74
2022/06/18 02:30:58;;;;;;;7.47;3.07;;;;;;;;;;5212279;28;20032;-74
2022/06/18 02:33:39;;;;;;;7.53;3.13;;;;;;;;;;5212775;28;20044;-73
2022/06/18 02:36:15;;;;;;;5.77;3.13;;;;;;;;;;5212609;28;20029;-73
2022/06/18 02:38:47;;;;;;;5.87;3.10;;;;;;;;;;5212544;28;20152;-73
2022/06/18 02:41:18;;;;;;;5.03;3.17;;;;;;;;;;5212158;28;20072;-73
2022/06/18 02:43:50;;;;;;;9.73;3.13;;;;;;;;;;5195261;28;20473;-73
2022/06/18 02:46:21;;;;;;;7.70;3.30;;;;;;;;;;5211075;28;20361;-73
2022/06/18 02:48:52;;;;;;;6.43;3.13;;;;;;;;;;5215212;28;20092;-72
2022/06/18 02:51:23;;;;;;;5.63;3.30;;;;;;;;;;5212744;28;20380;-73
2022/06/18 02:53:54;;;;;;;6.67;3.90;;;;;;;;;;5212186;28;20037;-73
2022/06/18 02:56:26;;;;;;;10.07;4.23;;;;;;;;;;5212229;28;20018;-73
2022/06/18 02:58:57;;;;;;;11.10;4.23;;;;;;;;;;5212439;28;20030;-73
2022/06/18 03:01:29;;;;;;;7.30;3.43;;;;;;;;;;5211795;28;20029;-73
2022/06/18 03:04:01;;;;;;;6.10;3.30;;;;;;;;;;5211989;28;20022;-73
2022/06/18 03:06:33;;;;;;;7.33;3.80;;;;;;;;;;5212214;28;20625;-72
2022/06/18 03:09:04;;;;;;;11.87;4.00;;;;;;;;;;5212175;28;20025;-73
2022/06/18 03:14:26;;;;;;;18.93;4.80;;;;;;;;;;5212139;28;20066;-73
2022/06/18 03:16:57;;;;;;;7.93;4.63;;;;;;;;;;5213680;28;20580;-73
2022/06/18 03:19:31;;;;;;;10.53;3.90;;;;;;;;;;5214695;28;20018;-72
2022/06/18 03:22:02;;;;;;;;;;;;;;;;;;5212301;28;20160;-72
2022/06/18 03:24:34;;;;;;;9.10;4.23;;;;;;;;;;5211553;28;20033;-72
2022/06/18 03:27:05;;;;;;;12.53;4.50;;;;;;;;;;5193660;28;20292;-72
2022/06/18 03:29:36;;;;;;;17.87;4.90;;;;;;;;;;5212185;28;20472;-72
2022/06/18 03:32:07;;;;;;;6.53;3.77;;;;;;;;;;5210480;28;20057;-72
2022/06/18 03:34:38;;;;;;;6.63;3.70;;;;;;;;;;5211943;28;20049;-72
2022/06/18 03:37:10;;;;;;;5.80;3.67;;;;;;;;;;5211412;28;20022;-72
2022/06/18 03:39:41;;;;;;;11.00;4.10;;;;;;;;;;5211301;28;20188;-71
2022/06/18 03:42:12;;;;;;;6.12;3.98;;;;;;;;;;5211369;28;20080;-73
2022/06/18 03:44:43;;;;;;;9.83;4.07;;;;;;;;;;5211584;28;20478;-73
2022/06/18 03:47:14;;;;;;;11.63;5.00;;;;;;;;;;5210583;28;20504;-73
2022/06/18 03:49:47;;;;;;;8.93;4.37;;;;;;;;;;5211621;28;20030;-73
2022/06/18 03:52:18;;;;;;;8.37;4.93;;;;;;;;;;5211722;28;20514;-73
2022/06/18 03:54:49;;;;;;;8.40;5.27;;;;;;;;;;5211560;28;20014;-73
2022/06/18 03:57:20;;;;;;;8.30;3.83;;;;;;;;;;5193052;28;20021;-73
2022/06/18 03:59:51;;;;;;;8.37;4.30;;;;;;;;;;5211308;28;20029;-73
2022/06/18 04:02:22;;;;;;;7.58;4.52;;;;;;;;;;5209714;28;20025;-72
2022/06/18 04:04:54;;;;;;;9.90;4.83;;;;;;;;;;5193626;28;20071;-72
2022/06/18 04:07:25;;;;;;;10.17;4.03;;;;;;;;;;5210485;28;20036;-73
2022/06/18 04:10:01;;;;;;;7.80;4.67;;;;;;;;;;5210589;28;20056;-73
2022/06/18 04:12:32;;;;;;;7.27;4.67;;;;;;;;;;5211096;28;20041;-72
2022/06/18 04:15:04;;;;;;;9.80;4.43;;;;;;;;;;5210480;28;20527;-78
2022/06/18 04:17:35;;;;;;;10.17;4.23;;;;;;;;;;5210546;28;20010;-71
2022/06/18 04:20:07;;;;;;;10.87;4.53;;;;;;;;;;5210373;28;20014;-70
2022/06/18 04:22:38;;;;;;;9.23;4.93;;;;;;;;;;5210751;28;20477;-70
2022/06/18 04:25:09;;;;;;;8.30;4.36;;;;;;;;;;5210681;28;20022;-71
2022/06/18 04:27:41;;;;;;;12.37;5.10;;;;;;;;;;5210351;28;20064;-72
2022/06/18 04:30:13;;;;;;;10.97;4.30;;;;;;;;;;5210588;28;20021;-72
2022/06/18 04:32:44;;;;;;;10.60;4.70;;;;;;;;;;5208682;28;20246;-73
2022/06/18 04:35:15;;;;;;;7.07;5.30;;;;;;;;;;5209134;28;20050;-73
2022/06/18 04:37:48;;;;;;;7.80;5.23;;;;;;;;;;5209320;28;20053;-73
2022/06/18 04:40:22;;;;;;;5.70;4.87;;;;;;;;;;5192407;28;20014;-72
2022/06/18 04:42:53;;;;;;;13.65;5.32;;;;;;;;;;5192795;28;20034;-72
2022/06/18 04:45:24;;;;;;;11.33;6.00;;;;;;;;;;5204293;28;20029;-72
2022/06/18 04:47:55;;;;;;;9.73;5.07;;;;;;;;;;5210265;28;20034;-72
2022/06/18 04:50:28;;;;;;;10.87;5.73;;;;;;;;;;5212273;28;20029;-73
2022/06/18 04:53:00;;;;;;;9.37;5.37;;;;;;;;;;5202939;28;20029;-73
2022/06/18 04:55:31;;;;;;;7.63;5.47;;;;;;;;;;5205264;28;20006;-73
2022/06/18 04:58:03;;;;;;;14.80;5.70;;;;;;;;;;5209046;28;20040;-73
2022/06/18 05:00:34;;;;;;;14.07;6.60;;;;;;;;;;5205834;28;20439;-73
2022/06/18 05:03:06;;;;;;;11.60;5.93;;;;;;;;;;5191236;28;20018;-73
2022/06/18 05:05:37;;;;;;;9.17;5.90;;;;;;;;;;5192585;28;20018;-73
2022/06/18 05:08:08;;;;;;;9.82;6.34;;;;;;;;;;5192440;28;20037;-73
2022/06/18 05:10:39;;;;;;;9.10;6.10;;;;;;;;;;5215757;28;20017;-73
2022/06/18 05:13:11;;;;;;;8.47;6.30;;;;;;;;;;5212820;28;20454;-72
2022/06/18 05:15:42;;;;;;;14.93;5.90;;;;;;;;;;5229486;28;20046;-73
2022/06/18 05:18:14;;;;;;;11.10;6.23;;;;;;;;;;5230381;28;20033;-72
2022/06/18 05:20:51;;;;;;;13.00;6.17;;;;;;;;;;5208592;28;20457;-72
2022/06/18 05:23:22;;;;;;;8.97;6.07;;;;;;;;;;5210353;28;20610;-72
2022/06/18 05:25:55;;;;;;;15.70;7.33;;;;;;;;;;5192555;28;20024;-73
2022/06/18 05:28:26;;;;;;;8.47;6.33;;;;;;;;;;5209615;28;20125;-73
2022/06/18 05:30:57;;;;;;;9.93;5.60;;;;;;;;;;5209073;28;20096;-73
2022/06/18 05:33:29;;;;;;;10.16;6.02;;;;;;;;;;5210174;28;20096;-73
2022/06/18 05:36:00;;;;;;;14.02;6.34;;;;;;;;;;5209657;28;20076;-73
2022/06/18 05:38:31;;;;;;;15.93;6.47;;;;;;;;;;5209736;28;20033;-73
2022/06/18 05:41:02;;;;;;;12.10;6.87;;;;;;;;;;5211172;28;20362;-71
2022/06/18 05:43:33;;;;;;;14.33;6.23;;;;;;;;;;5193141;28;20464;-72
2022/06/18 05:46:07;;;;;;;15.13;6.87;;;;;;;;;;5191164;28;20018;-72
2022/06/18 05:48:38;;;;;;;11.10;6.70;;;;;;;;;;5210087;28;20033;-72
2022/06/18 05:51:10;;;;;;;15.93;6.87;;;;;;;;;;5209306;28;20022;-73
2022/06/18 05:53:41;;;;;;;16.17;7.13;;;;;;;;;;5209528;28;20483;-72
2022/06/18 05:56:12;;;;;;;15.10;7.00;;;;;;;;;;5212134;28;20014;-73
2022/06/18 05:58:43;;;;;;;12.17;6.70;;;;;;;;;;5208681;28;20121;-72
2022/06/18 06:01:15;;;;;;;11.97;7.00;;;;;;;;;;5210107;28;20388;-73
2022/06/18 06:03:46;;;;;;;13.63;6.27;;;;;;;;;;5213270;28;20045;-73
2022/06/18 06:06:17;;;;;;;13.78;6.30;;;;;;;;;;5213343;28;20022;-73
2022/06/18 06:08:48;;;;;;;14.87;6.33;;;;;;;;;;5212703;28;20034;-72
2022/06/18 06:11:28;;;;;;;13.57;5.70;;;;;;;;;;5213130;28;20109;-72
2022/06/18 06:14:01;;;;;;;16.20;6.67;;;;;;;;;;5213209;28;20033;-73
2022/06/18 06:16:32;;;;;;;13.77;5.97;;;;;;;;;;5212176;28;20024;-72
2022/06/18 06:19:03;;;;;;;11.70;5.90;;;;;;;;;;5212897;28;20018;-73
2022/06/18 06:21:34;;;;;;;9.73;5.50;;;;;;;;;;5213465;28;20124;-73
2022/06/18 06:24:06;;;;;;;11.33;6.00;;;;;;;;;;5212977;28;20021;-73
2022/06/18 06:26:37;;;;;;;10.25;5.47;;;;;;;;;;5213148;28;20037;-73
2022/06/18 06:29:09;;;;;;;10.10;5.15;;;;;;;;;;5212645;28;20032;-73
2022/06/18 06:31:40;;;;;;;16.73;5.80;;;;;;;;;;5212449;28;20495;-73
2022/06/18 06:34:12;;;;;;;18.83;6.27;;;;;;;;;;5212087;28;20053;-72
2022/06/18 06:36:43;;;;;;;13.35;5.22;;;;;;;;;;5213534;28;20135;-72
2022/06/18 06:39:14;;;;;;;12.52;5.38;;;;;;;;;;5216219;28;20473;-72
2022/06/18 06:41:45;;;;;;;11.07;4.87;;;;;;;;;;5213334;28;20022;-72
2022/06/18 06:44:17;;;;;;;14.95;5.60;;;;;;;;;;5212360;28;20026;-72
2022/06/18 06:46:48;;;;;;;10.75;5.40;;;;;;;;;;5211575;28;20037;-72
2022/06/18 06:49:20;;;;;;;12.45;5.05;;;;;;;;;;5194869;28;20041;-72
2022/06/18 06:51:53;;;;;;;17.48;5.15;;;;;;;;;;5212572;28;20498;-72
2022/06/18 06:54:24;;;;;;;13.15;5.07;;;;;;;;;;5194450;28;20095;-72
2022/06/18 06:59:45;;;;;;;14.70;5.50;;;;;;;;;;5212918;28;20392;-73
2022/06/18 07:02:19;;;;;;;14.06;5.56;;;;;;;;;;5210861;28;20025;-72
2022/06/18 07:04:50;;;;;;;15.20;5.75;;;;;;;;;;5212648;28;20033;-72
2022/06/18 07:07:21;;;;;;;16.70;4.70;;;;;;;;;;5211881;28;20026;-72
2022/06/18 07:09:53;;;;;;;17.10;5.45;;;;;;;;;;5212063;28;20070;-72
2022/06/18 07:12:24;;;;;;;14.07;5.13;;;;;;;;;;5194059;28;20060;-73
2022/06/18 07:14:55;;;;;;;16.50;5.18;;;;;;;;;;5211782;28;20034;-73
2022/06/18 07:17:28;;;;;;;18.83;5.80;;;;;;;;;;5193451;28;20095;-72
2022/06/18 07:19:59;;;;;;;17.25;5.32;;;;;;;;;;5212236;28;20251;-73
2022/06/18 07:22:32;;;;;;;12.80;5.78;;;;;;;;;;5211970;28;20069;-72
2022/06/18 07:25:03;;;;;;;18.48;5.22;;;;;;;;;;5211776;28;20032;-72
2022/06/18 07:27:35;;;;;;;18.48;6.13;;;;;;;;;;5201351;28;20022;-74
2022/06/18 07:30:08;;;;;;;11.77;6.00;;;;;;;;;;5195400;28;20105;-73
2022/06/18 07:32:44;;;;;;;18.33;7.03;;;;;;;;;;5200711;28;20018;-74
2022/06/18 07:35:19;;;;;;;13.25;5.80;;;;;;;;;;5210674;28;20024;-73
2022/06/18 07:37:51;;;;;;;13.10;6.38;;;;;;;;;;5210759;28;20061;-74
2022/06/18 07:40:22;;;;;;;14.95;6.50;;;;;;;;;;5210156;28;20056;-74
2022/06/18 07:42:54;;;;;;;17.42;5.30;;;;;;;;;;5210683;28;20030;-74
2022/06/18 07:45:25;;;;;;;13.73;5.90;;;;;;;;;;5210074;28;20061;-73
2022/06/18 07:47:56;;;;;;;15.70;5.93;;;;;;;;;;5211313;28;20034;-74
2022/06/18 07:50:29;;;;;;;12.60;5.25;;;;;;;;;;5209496;28;20025;-74
2022/06/18 07:53:00;;;;;;;15.20;5.03;;;;;;;;;;5199469;28;20312;-74
2022/06/18 07:55:31;;;;;;;18.92;5.43;;;;;;;;;;5198245;28;20019;-74
2022/06/18 07:58:02;;;;;;;12.32;4.82;;;;;;;;;;5207145;28;20108;-74
2022/06/18 08:00:35;;;;;;;16.98;5.32;;;;;;;;;;5188851;28;20018;-75
2022/06/18 08:03:06;;;;;;;11.82;5.63;;;;;;;;;;5210015;28;20010;-74
2022/06/18 08:05:38;;;;;;;12.52;4.90;;;;;;;;;;5210958;28;20026;-74
2022/06/18 08:08:09;;;;;;;16.40;5.07;;;;;;;;;;5210935;28;20030;-74
2022/06/18 08:10:42;;;;;;;16.63;5.50;;;;;;;;;;5211441;28;20088;-74
2022/06/18 08:13:13;;;;;;;17.60;5.30;;;;;;;;;;5211409;28;20026;-75
2022/06/18 08:15:45;;;;;;;13.07;4.90;;;;;;;;;;5193584;28;20042;-74
2022/06/18 08:18:16;;;;;;;16.10;5.18;;;;;;;;;;5194017;28;20461;-74
2022/06/18 08:20:47;;;;;;;16.38;4.68;;;;;;;;;;5177786;28;20014;-75
2022/06/18 08:23:19;;;;;;;11.18;4.68;;;;;;;;;;5200988;28;20106;-74
2022/06/18 08:25:50;;;;;;;13.30;4.70;;;;;;;;;;5205361;28;20551;-73
2022/06/18 08:28:21;;;;;;;15.70;5.93;;;;;;;;;;5194408;28;20033;-77
2022/06/18 08:30:53;;;;;;;15.43;4.90;;;;;;;;;;5207752;28;20017;-77
2022/06/18 08:33:24;;;;;;;14.32;5.68;;;;;;;;;;5207792;28;20018;-76
2022/06/18 08:36:00;;;;;;;17.25;4.55;;;;;;;;;;5206088;28;20022;-77
2022/06/18 08:38:32;;;;;;;15.02;4.72;;;;;;;;;;5208715;28;20021;-76
2022/06/18 08:41:03;;;;;;;19.13;4.78;;;;;;;;;;5207562;28;20025;-76
2022/06/18 08:43:53;;;;;;;11.63;4.78;;;;;;;;;;5208383;28;20018;-75
2022/06/18 08:46:27;;;;;;;15.05;5.32;;;;;;;;;;5207634;28;20335;-78
2022/06/18 08:49:07;;;;;;;20.02;5.13;;;;;;;;;;5204899;28;20042;-73
2022/06/18 08:52:04;;;;;;;18.42;4.43;;;;;;;;;;5211497;28;20072;-78
2022/06/18 08:54:38;;;;;;;20.27;5.65;;;;;;;;;;5189938;28;20093;-75
2022/06/18 08:57:09;;;;;;;15.60;4.90;;;;;;;;;;5209743;28;20026;-75
2022/06/18 08:59:50;;;;;;;16.60;4.97;;;;;;;;;;5208882;28;20675;-76
2022/06/18 09:02:27;;;;;;;17.77;5.10;;;;;;;;;;5205539;28;20022;-77
2022/06/18 09:05:11;;;;;;;17.38;4.70;;;;;;;;;;5203493;28;20425;-76
2022/06/18 09:07:42;;;;;;;;;;;;;;;;;;5209575;28;20018;-77
2022/06/18 09:10:33;;;;;;;15.45;4.75;;;;;;;;;;5204390;28;19917;-78
2022/06/18 09:13:07;;;;;;;14.35;4.72;;;;;;;;;;5208561;28;20021;-74
2022/06/18 09:15:43;;;;;;;11.32;4.85;;;;;;;;;;5208817;28;20125;-75
2022/06/18 09:18:20;;;;;;;13.57;5.05;;;;;;;;;;5209136;28;20034;-77
2022/06/18 09:20:53;;;;;;;12.70;4.30;;;;;;;;;;5210286;28;20030;-74
2022/06/18 09:23:56;;;;;;;18.30;4.88;;;;;;;;;;5210975;28;20425;-87
2022/06/18 09:26:36;;;;;;;16.15;5.30;;;;;;;;;;5175635;28;20033;-69
2022/06/18 09:29:08;;;;;;;9.75;4.72;;;;;;;;;;5206854;28;20049;-70
2022/06/18 09:31:45;;;;;;;18.25;5.80;;;;;;;;;;5190530;28;20018;-74
2022/06/18 09:34:21;;;;;;;11.98;5.22;;;;;;;;;;5208527;28;20038;-73
2022/06/18 09:36:56;;;;;;;14.90;5.95;;;;;;;;;;5195810;28;20021;-71
2022/06/18 09:39:36;;;;;;;20.08;6.90;;;;;;;;;;5214043;28;20531;-71
2022/06/18 09:42:25;;;;;;;16.17;5.78;;;;;;;;;;5212529;28;20160;-71
2022/06/18 09:45:15;;;;;;;15.65;5.47;;;;;;;;;;5212123;28;20018;-71
2022/06/18 09:47:47;;;;;;;16.25;5.45;;;;;;;;;;5213406;28;20037;-70
2022/06/18 09:50:21;;;;;;;15.18;5.50;;;;;;;;;;5213449;28;20030;-69
2022/06/18 09:53:00;;;;;;;13.40;5.15;;;;;;;;;;5196171;28;20394;-69
2022/06/18 09:55:36;;;;;;;23.73;6.32;;;;;;;;;;5213652;28;20480;-71
2022/06/18 09:58:11;;;;;;;16.52;6.22;;;;;;;;;;5195498;28;20025;-70
2022/06/18 10:00:43;;;;;;;15.52;5.15;;;;;;;;;;5195667;28;20026;-69
2022/06/18 10:09:03;;;;;;;15.32;5.40;;;;;;;;;;5213815;28;20408;-70
2022/06/18 10:11:36;;;;;;;17.60;5.30;;;;;;;;;;5213316;28;20017;-71
2022/06/18 10:14:11;;;;;;;19.05;5.65;;;;;;;;;;5194569;28;20461;-71
2022/06/18 10:16:55;;;;;;;15.30;5.60;;;;;;;;;;5212273;28;20040;-71
2022/06/18 10:19:29;;;;;;;11.32;5.45;;;;;;;;;;5212829;28;20628;-72
2022/06/18 10:22:06;;;;;;;15.77;5.40;;;;;;;;;;5212619;28;20024;-69
2022/06/18 10:24:48;;;;;;;15.75;5.32;;;;;;;;;;5212411;28;20022;-69
2022/06/18 10:27:25;;;;;;;14.10;5.20;;;;;;;;;;5194884;28;20504;-71
2022/06/18 10:29:56;;;;;;;13.52;4.88;;;;;;;;;;5211834;28;20025;-71
2022/06/18 10:32:34;;;;;;;18.67;5.25;;;;;;;;;;5211865;28;20022;-71
2022/06/18 10:35:16;;;;;;;16.55;5.88;;;;;;;;;;5211124;28;20050;-70
2022/06/18 10:37:53;;;;;;;16.38;4.97;;;;;;;;;;5212519;28;20033;-72
2022/06/18 10:40:28;;;;;;;10.27;5.30;;;;;;;;;;5194372;28;20025;-73
2022/06/18 10:43:18;;;;;;;19.42;6.68;;;;;;;;;;5212740;28;20536;-73
2022/06/18 10:45:54;;;;;;;13.30;4.43;;;;;;;;;;5194041;28;20099;-73
2022/06/18 10:48:28;;;;;;;16.67;5.20;;;;;;;;;;5193615;28;20025;-73
2022/06/18 10:51:00;;;;;;;12.75;4.68;;;;;;;;;;5212510;28;20017;-73
2022/06/18 10:53:44;;;;;;;17.75;5.50;;;;;;;;;;5211442;28;20782;-74
2022/06/18 10:56:26;;;;;;;20.17;6.78;;;;;;;;;;5212026;28;20076;-74
2022/06/18 10:59:02;;;;;;;17.25;5.88;;;;;;;;;;5209942;28;20026;-74
2022/06/18 11:01:36;;;;;;;19.17;5.97;;;;;;;;;;5208111;28;20071;-74
2022/06/18 11:04:28;;;;;;;15.68;6.70;;;;;;;;;;5210532;28;20044;-72
2022/06/18 11:07:01;;;;;;;15.55;5.20;;;;;;;;;;5193297;28;20088;-71
2022/06/18 11:09:33;;;;;;;15.98;5.43;;;;;;;;;;5211073;28;20025;-71
2022/06/18 11:12:06;;;;;;;19.30;5.93;;;;;;;;;;5210968;28;20022;-74
2022/06/18 11:14:41;;;;;;;16.20;5.03;;;;;;;;;;5179097;28;20683;-75
2022/06/18 11:17:20;;;;;;;17.67;5.57;;;;;;;;;;5193492;28;20046;-76
2022/06/18 11:19:51;;;;;;;13.60;4.88;;;;;;;;;;5211724;28;20022;-75
2022/06/18 11:22:25;;;;;;;13.73;5.50;;;;;;;;;;5193353;28;20503;-74
2022/06/18 11:24:59;;;;;;;14.95;5.22;;;;;;;;;;5211446;28;20054;-75
2022/06/18 11:27:34;;;;;;;19.42;5.88;;;;;;;;;;5193359;28;20041;-75
2022/06/18 11:30:07;;;;;;;16.08;5.25;;;;;;;;;;5210668;28;20429;-76
2022/06/18 11:32:42;;;;;;;16.42;5.80;;;;;;;;;;5211146;28;20022;-75
2022/06/18 11:35:13;;;;;;;15.25;4.57;;;;;;;;;;5211163;28;20419;-76
2022/06/18 11:37:54;;;;;;;14.77;4.75;;;;;;;;;;5210970;28;20021;-75
2022/06/18 11:40:26;;;;;;;17.85;5.28;;;;;;;;;;5211160;28;20599;-75
2022/06/18 11:43:15;;;;;;;13.25;5.13;;;;;;;;;;5210698;28;20010;-74
2022/06/18 11:45:50;;;;;;;18.80;5.13;;;;;;;;;;5210641;28;20674;-74
2022/06/18 11:48:40;;;;;;;15.05;5.32;;;;;;;;;;5210277;28;20060;-74
2022/06/18 11:51:27;;;;;;;15.10;4.72;;;;;;;;;;5210394;28;20029;-74
2022/06/18 11:54:05;;;;;;;22.23;5.32;;;;;;;;;;5210613;28;20032;-72
2022/06/18 11:56:48;;;;;;;23.10;5.70;;;;;;;;;;5210080;28;20664;-72
2022/06/18 11:59:22;;;;;;;12.98;5.18;;;;;;;;;;5208609;28;20026;-73
2022/06/18 12:01:55;;;;;;;16.48;5.30;;;;;;;;;;5208092;28;20018;-72
2022/06/18 12:04:36;;;;;;;15.23;5.82;;;;;;;;;;5209340;28;20783;-70
2022/06/18 12:07:09;;;;;;;18.05;5.25;;;;;;;;;;5208444;28;20103;-72
2022/06/18 12:09:42;;;;;;;18.20;5.25;;;;;;;;;;5210402;28;20492;-71
2022/06/18 12:12:19;;;;;;;19.30;5.47;;;;;;;;;;5192129;28;20033;-72
2022/06/18 12:14:53;;;;;;;17.02;5.05;;;;;;;;;;5191809;28;20085;-69
2022/06/18 12:17:35;;;;;;;17.48;5.43;;;;;;;;;;5209820;28;20018;-71
2022/06/18 12:20:15;;;;;;;20.30;6.45;;;;;;;;;;5206914;28;20029;-76
2022/06/18 12:22:50;;;;;;;16.95;5.53;;;;;;;;;;5207763;28;20036;-76
2022/06/18 12:25:40;;;;;;;17.42;4.88;;;;;;;;;;5209048;28;20487;-77
2022/06/18 12:28:24;;;;;;;14.15;4.88;;;;;;;;;;5207177;28;20124;-73
2022/06/18 12:30:58;;;;;;;17.05;5.55;;;;;;;;;;5204290;28;20028;-73
2022/06/18 12:33:45;;;;;;;14.57;5.10;;;;;;;;;;5207035;28;20014;-73
2022/06/18 12:36:18;;;;;;;12.48;4.70;;;;;;;;;;5206426;28;20032;-72
2022/06/18 12:39:03;;;;;;;17.35;5.72;;;;;;;;;;5204340;28;20044;-71
2022/06/18 12:41:39;;;;;;;17.92;5.00;;;;;;;;;;5189739;28;20025;-74
2022/06/18 12:44:29;;;;;;;17.25;4.68;;;;;;;;;;5188283;28;20049;-73
2022/06/18 12:47:03;;;;;;;20.90;5.93;;;;;;;;;;5202494;28;20021;-72
2022/06/18 12:49:34;;;;;;;13.90;5.13;;;;;;;;;;5207047;28;20017;-73
2022/06/18 12:52:20;;;;;;;22.90;6.45;;;;;;;;;;5204255;28;20030;-70
2022/06/18 12:55:02;;;;;;;16.92;5.10;;;;;;;;;;5204878;28;20022;-70
2022/06/18 12:57:57;;;;;;;19.92;6.78;;;;;;;;;;5187545;28;20049;-72
2022/06/18 13:00:28;;;;;;;14.65;4.88;;;;;;;;;;5202605;28;20083;-71
2022/06/18 13:03:07;;;;;;;16.92;5.22;;;;;;;;;;5203632;28;20018;-72
2022/06/18 13:05:41;;;;;;;21.50;4.63;;;;;;;;;;5205200;28;20444;-72
2022/06/18 13:08:13;;;;;;;21.38;5.53;;;;;;;;;;5204887;28;20061;-73
2022/06/18 13:10:53;;;;;;;18.27;5.78;;;;;;;;;;5204847;28;20109;-72
2022/06/18 13:13:33;;;;;;;17.05;5.95;;;;;;;;;;5196862;28;20034;-73
2022/06/18 13:16:13;;;;;;;20.38;5.13;;;;;;;;;;5203489;28;20421;-73
2022/06/18 13:18:53;;;;;;;21.92;6.05;;;;;;;;;;5204986;28;20021;-76
2022/06/18 13:21:25;;;;;;;21.02;5.78;;;;;;;;;;5202787;28;20072;-72
2022/06/18 13:29:57;;;;;;;16.63;5.03;;;;;;;;;;5203417;28;20025;-72
2022/06/18 13:32:28;;;;;;;18.00;5.00;;;;;;;;;;5203043;28;20026;-72
2022/06/18 13:35:11;;;;;;;16.15;5.53;;;;;;;;;;5206082;28;20053;-73
2022/06/18 13:37:49;;;;;;;19.20;6.95;;;;;;;;;;5186826;28;20774;-72
2022/06/18 13:40:35;;;;;;;18.17;5.13;;;;;;;;;;5203434;28;20026;-73
2022/06/18 13:43:12;;;;;;;16.63;5.28;;;;;;;;;;5206293;28;20181;-72
2022/06/18 13:45:54;;;;;;;14.88;5.43;;;;;;;;;;5187251;28;20373;-72
2022/06/18 13:48:25;;;;;;;16.10;5.30;;;;;;;;;;5186428;28;20053;-73
2022/06/18 13:50:57;;;;;;;22.17;6.63;;;;;;;;;;5187532;28;20018;-73
2022/06/18 13:53:31;;;;;;;17.77;5.32;;;;;;;;;;5203589;28;20318;-73
2022/06/18 13:56:14;;;;;;;21.77;5.05;;;;;;;;;;5184629;28;20121;-73
2022/06/18 13:58:46;;;;;;;;;;;;;;;;;;5189913;28;20021;-77
2022/06/18 14:01:18;;;;;;;24.15;6.97;;;;;;;;;;5206288;28;19912;-76
2022/06/18 14:03:51;;;;;;;26.23;5.18;;;;;;;;;;5202532;28;20022;-77
2022/06/18 14:06:22;;;;;;;17.58;6.50;;;;;;;;;;5206278;28;20042;-76
2022/06/18 14:08:59;;;;;;;19.38;5.32;;;;;;;;;;5205942;28;20109;-76
2022/06/18 14:11:44;;;;;;;22.05;6.35;;;;;;;;;;5205924;28;20038;-76
2022/06/18 14:14:26;;;;;;;18.45;6.18;;;;;;;;;;5180608;28;20062;-76
2022/06/18 14:17:08;;;;;;;15.50;5.55;;;;;;;;;;5185361;28;20030;-76
2022/06/18 14:19:44;;;;;;;22.65;5.55;;;;;;;;;;5183713;28;20030;-76
2022/06/18 14:22:18;;;;;;;15.93;5.28;;;;;;;;;;5184947;28;20030;-74
2022/06/18 14:25:00;;;;;;;23.02;6.03;;;;;;;;;;5192759;28;20030;-74
2022/06/18 14:27:33;;;;;;;18.52;6.00;;;;;;;;;;5186973;28;20519;-75
2022/06/18 14:30:04;;;;;;;17.52;5.05;;;;;;;;;;5188518;28;20011;-74
2022/06/18 14:32:49;;;;;;;22.35;5.60;;;;;;;;;;5190966;28;20033;-74
2022/06/18 14:35:26;;;;;;;17.55;5.15;;;;;;;;;;5185684;28;20377;-75
2022/06/18 14:38:00;;;;;;;21.15;5.65;;;;;;;;;;5189778;28;20010;-75
2022/06/18 14:41:34;;;;;;;18.67;5.13;;;;;;;;;;5187409;28;20026;-75
2022/06/18 14:43:28;;;;;;;22.75;7.93;;;;;;;;;;5185464;28;20105;-74
2022/06/18 14:45:59;;;;;;;20.63;5.57;;;;;;;;;;5187367;28;20038;-74
2022/06/18 14:48:46;;;;;;;21.05;5.80;;;;;;;;;;5189609;28;20087;-75
2022/06/18 14:51:33;;;;;;;17.15;5.35;;;;;;;;;;5186926;28;20030;-75
2022/06/18 14:54:33;;;;;;;11.85;5.25;;;;;;;;;;5189881;28;20018;-75
2022/06/18 14:57:24;;;;;;;23.17;7.00;;;;;;;;;;5189673;28;20018;-74
2022/06/18 15:00:03;;;;;;;18.83;5.45;;;;;;;;;;5187306;28;20029;-74
2022/06/18 15:02:42;;;;;;;17.75;5.80;;;;;;;;;;5185872;28;20022;-74
2022/06/18 15:05:16;;;;;;;17.02;6.00;;;;;;;;;;5186783;28;20023;-71
2022/06/18 15:07:47;;;;;;;15.85;5.75;;;;;;;;;;5187171;28;20042;-70
2022/06/18 15:10:23;;;;;;;16.63;5.95;;;;;;;;;;5187965;28;20015;-71
2022/06/18 15:12:54;;;;;;;15.32;5.72;;;;;;;;;;5184586;28;20116;-72
2022/06/18 15:15:39;;;;;;;17.75;5.85;;;;;;;;;;5200278;28;20137;-71
2022/06/18 15:18:27;;;;;;;18.00;6.53;;;;;;;;;;5210538;28;20076;-71
2022/06/18 15:21:21;;;;;;;18.63;5.68;;;;;;;;;;5188636;28;20018;-72
2022/06/18 15:24:01;;;;;;;25.40;6.15;;;;;;;;;;5187582;28;20683;-71
2022/06/18 15:26:33;;;;;;;21.00;5.90;;;;;;;;;;5207688;28;20100;-71
2022/06/18 15:29:07;;;;;;;19.35;5.35;;;;;;;;;;5189057;28;20388;-71
2022/06/18 15:31:39;;;;;;;21.55;6.28;;;;;;;;;;5186688;28;20033;-73
2022/06/18 15:34:19;;;;;;;19.55;5.80;;;;;;;;;;5205651;28;20423;-73
2022/06/18 15:37:14;;;;;;;15.35;5.32;;;;;;;;;;5202715;28;20026;-71
2022/06/18 15:39:48;;;;;;;20.50;5.90;;;;;;;;;;5195030;28;20029;-75